Meno, Oklahoma
Current Conditions -  °F | °C
As of 4:16 PM on Friday 19 Dec 2014 (Local Time) from KEND Reporting Station
Overcast Overcast  
Wind Chill: 39°   Ceiling: 3000
Heat Index: 39°   Visibility: 10mi
Dew Point: 34°   Wind: 3mph
Humidity: 81%   Direction: NA
Pressure: 30.17"   Gusts: NA
Location:  36.39°N, 98.18°W
Report Text: KEND 192216Z VRB03KT 10SM SCT016 OVC030 04/01 A3017 RMK AO2A
Loading
Personal Weather Stations






























Interactive Weather Map New forecast layout! Learn more

10-Day Weather Forecast

Advertisements
Track Severe Weather on mobile